createdAt,value
2022-12-31T00:01:08.157Z,42.22
2022-12-31T00:03:38.328Z,50.35
2022-12-31T00:06:22.488Z,53.45
2022-12-31T00:08:51.820Z,50.13
2022-12-31T00:13:47.666Z,52.05
2022-12-31T00:16:24.528Z,47.53
2022-12-31T00:18:59.408Z,48.08
2022-12-31T00:21:30.466Z,55.42
2022-12-31T00:23:58.937Z,45.60
2022-12-31T00:26:29.358Z,46.13
2022-12-31T00:28:59.300Z,53.47
2022-12-31T00:31:29.559Z,54.75
2022-12-31T00:33:58.200Z,51.97
2022-12-31T00:36:39.989Z,45.30
2022-12-31T00:39:08.616Z,44.85
2022-12-31T00:41:36.645Z,50.17
2022-12-31T00:44:05.789Z,53.53
2022-12-31T00:46:33.061Z,53.60
2022-12-31T00:49:00.517Z,55.15
2022-12-31T00:51:28.277Z,55.58
2022-12-31T00:53:58.214Z,59.60
2022-12-31T00:56:29.204Z,60.67
2022-12-31T00:58:56.875Z,53.40
2022-12-31T01:01:30.892Z,55.00
2022-12-31T01:04:01.846Z,56.78
2022-12-31T01:06:30.518Z,61.65
2022-12-31T01:08:58.682Z,56.65
2022-12-31T01:11:29.521Z,67.75
2022-12-31T01:14:05.211Z,65.03
2022-12-31T01:16:39.915Z,48.20
2022-12-31T01:19:10.218Z,46.72
2022-12-31T01:21:39.842Z,50.50
2022-12-31T01:24:08.170Z,50.30
2022-12-31T01:26:37.537Z,49.85
2022-12-31T01:29:07.007Z,58.03
2022-12-31T01:31:35.833Z,59.15
2022-12-31T01:34:04.487Z,60.13
2022-12-31T01:36:34.017Z,62.83
2022-12-31T01:39:03.047Z,68.80
2022-12-31T01:41:33.995Z,56.65
2022-12-31T01:44:11.440Z,76.55
2022-12-31T01:46:56.997Z,80.55
2022-12-31T01:49:42.899Z,71.85
2022-12-31T01:52:27.480Z,77.25
2022-12-31T01:55:00.399Z,68.18
2022-12-31T01:57:28.479Z,51.30
2022-12-31T01:59:57.083Z,57.05
2022-12-31T02:02:24.755Z,55.28
2022-12-31T02:04:55.597Z,53.40
2022-12-31T02:07:23.815Z,51.10
2022-12-31T02:09:52.043Z,52.17
2022-12-31T02:12:19.800Z,54.05
2022-12-31T02:14:50.873Z,54.42
2022-12-31T02:17:36.786Z,47.00
2022-12-31T02:20:13.058Z,64.28
2022-12-31T02:23:17.973Z,63.42
2022-12-31T02:26:03.654Z,63.47
2022-12-31T02:28:51.486Z,61.22
2022-12-31T02:31:33.437Z,67.10
2022-12-31T02:34:13.881Z,71.20
2022-12-31T02:36:47.538Z,55.58
2022-12-31T02:39:15.950Z,49.50
2022-12-31T02:41:52.059Z,63.38
2022-12-31T02:44:34.793Z,47.22
2022-12-31T02:47:09.294Z,50.92
2022-12-31T02:50:14.358Z,55.53
2022-12-31T02:52:45.575Z,66.38
2022-12-31T02:55:31.771Z,68.10
2022-12-31T02:58:23.047Z,68.53
2022-12-31T03:01:16.233Z,69.63
2022-12-31T03:03:43.871Z,74.78
2022-12-31T03:06:12.414Z,65.20
2022-12-31T03:09:02.521Z,71.78
2022-12-31T03:11:48.973Z,63.88
2022-12-31T03:14:16.066Z,58.58
2022-12-31T03:16:43.841Z,63.58
2022-12-31T03:19:34.973Z,63.38
2022-12-31T03:22:22.974Z,61.03
2022-12-31T03:25:08.477Z,56.03
2022-12-31T03:27:37.239Z,58.67
2022-12-31T03:30:05.592Z,69.07
2022-12-31T03:32:36.401Z,65.88
2022-12-31T03:35:04.671Z,60.88
2022-12-31T03:37:33.799Z,63.13
2022-12-31T03:40:00.805Z,63.97
2022-12-31T03:42:28.108Z,61.55
2022-12-31T03:44:55.225Z,62.53
2022-12-31T03:47:22.618Z,58.88
2022-12-31T03:49:49.652Z,62.25
2022-12-31T03:52:17.045Z,60.75
2022-12-31T03:54:44.721Z,56.88
2022-12-31T03:57:12.532Z,56.10
2022-12-31T03:59:39.888Z,56.35
2022-12-31T04:02:07.567Z,58.83
2022-12-31T04:04:34.761Z,68.72
2022-12-31T04:07:05.022Z,52.25
2022-12-31T04:09:32.526Z,43.22
2022-12-31T04:12:00.328Z,37.95
2022-12-31T04:14:30.972Z,50.72
2022-12-31T04:16:59.933Z,55.35
2022-12-31T04:19:27.437Z,73.47
2022-12-31T04:21:54.842Z,75.00
2022-12-31T04:24:21.946Z,70.00
2022-12-31T04:26:49.408Z,64.53
2022-12-31T04:29:16.621Z,70.72
2022-12-31T04:31:44.721Z,65.50
2022-12-31T04:34:11.746Z,61.03
2022-12-31T04:36:39.536Z,54.30
2022-12-31T04:39:07.761Z,62.33
2022-12-31T04:41:35.130Z,60.60
2022-12-31T04:44:02.618Z,69.03
2022-12-31T04:46:32.661Z,71.70
2022-12-31T04:49:01.045Z,69.60
2022-12-31T04:51:33.693Z,69.80
2022-12-31T04:54:03.417Z,74.93
2022-12-31T04:56:33.078Z,75.45
2022-12-31T05:01:57.971Z,73.78
2022-12-31T05:04:42.410Z,72.90
2022-12-31T05:07:09.892Z,74.07
2022-12-31T05:09:37.077Z,74.15
2022-12-31T05:12:04.783Z,78.22
2022-12-31T05:14:31.872Z,75.22
2022-12-31T05:16:59.506Z,69.60
2022-12-31T05:19:26.597Z,76.20
2022-12-31T05:22:13.750Z,80.47
2022-12-31T05:24:45.513Z,74.82
2022-12-31T05:27:12.991Z,78.15
2022-12-31T05:29:39.977Z,74.03
2022-12-31T05:32:07.456Z,70.28
2022-12-31T05:34:34.523Z,62.83
2022-12-31T05:37:03.300Z,61.42
2022-12-31T05:39:30.987Z,58.45
2022-12-31T05:42:00.903Z,39.90
2022-12-31T05:44:28.567Z,42.00
2022-12-31T05:46:57.116Z,56.03
2022-12-31T05:49:24.163Z,61.88
2022-12-31T05:51:51.532Z,69.22
2022-12-31T05:54:23.491Z,72.78
2022-12-31T05:57:06.592Z,63.47
2022-12-31T05:59:34.740Z,75.18
2022-12-31T06:02:01.945Z,72.95
2022-12-31T06:04:29.326Z,66.13
2022-12-31T06:06:58.784Z,79.03
2022-12-31T06:09:27.390Z,66.47
2022-12-31T06:14:45.947Z,73.45
2022-12-31T06:17:13.209Z,75.57
2022-12-31T06:19:40.640Z,79.45
2022-12-31T06:22:07.811Z,74.38
2022-12-31T06:24:35.679Z,77.30
2022-12-31T06:27:02.720Z,78.07
2022-12-31T06:29:31.323Z,77.20
2022-12-31T06:35:06.170Z,74.18
2022-12-31T06:37:48.498Z,70.20
2022-12-31T06:40:31.242Z,71.60
2022-12-31T06:43:00.282Z,72.75
2022-12-31T06:45:28.574Z,69.50
2022-12-31T06:47:56.914Z,77.43
2022-12-31T06:50:23.878Z,73.45
2022-12-31T06:52:51.631Z,69.55
2022-12-31T06:55:19.880Z,70.63
2022-12-31T06:57:48.131Z,74.30
2022-12-31T07:00:16.357Z,70.72
2022-12-31T07:03:14.285Z,68.30
2022-12-31T07:05:55.774Z,68.88
2022-12-31T07:08:48.158Z,67.43
2022-12-31T07:11:26.124Z,60.88
2022-12-31T07:14:09.723Z,73.68
2022-12-31T07:16:36.771Z,89.65
2022-12-31T07:19:32.629Z,82.53
2022-12-31T07:24:27.935Z,89.80
2022-12-31T07:27:17.596Z,96.15
2022-12-31T07:30:01.819Z,91.50
2022-12-31T07:32:39.869Z,92.97
2022-12-31T07:35:32.956Z,90.57
2022-12-31T07:38:20.929Z,93.90
2022-12-31T07:41:30.621Z,80.03
2022-12-31T07:44:40.158Z,84.00
2022-12-31T07:47:29.682Z,85.82
2022-12-31T07:49:58.311Z,85.25
2022-12-31T07:52:27.521Z,83.45
2022-12-31T07:54:56.390Z,87.82
2022-12-31T07:57:38.416Z,85.30
2022-12-31T08:00:15.895Z,78.18
2022-12-31T08:02:55.268Z,79.63
2022-12-31T08:05:59.981Z,72.93
2022-12-31T08:08:35.459Z,76.85
2022-12-31T08:11:07.758Z,79.95
2022-12-31T08:13:37.533Z,66.35
2022-12-31T08:16:12.427Z,76.18
2022-12-31T08:18:40.705Z,69.93
2022-12-31T08:21:34.500Z,73.25
2022-12-31T08:24:36.145Z,71.63
2022-12-31T08:27:17.163Z,70.13
2022-12-31T08:29:56.575Z,67.72
2022-12-31T08:32:52.474Z,71.05
2022-12-31T08:35:40.052Z,66.80
2022-12-31T08:41:53.125Z,65.82
2022-12-31T08:45:00.322Z,58.55
2022-12-31T08:48:00.172Z,59.17
2022-12-31T08:50:37.145Z,57.70
2022-12-31T08:53:07.661Z,55.08
2022-12-31T08:55:36.521Z,55.10
2022-12-31T09:01:27.751Z,62.35
2022-12-31T09:04:15.543Z,53.92
2022-12-31T09:10:29.135Z,57.20
2022-12-31T09:16:39.263Z,55.30
2022-12-31T09:19:10.074Z,53.30
2022-12-31T09:21:38.278Z,57.22
2022-12-31T09:24:09.470Z,54.63
2022-12-31T09:26:45.851Z,46.25
2022-12-31T09:29:35.726Z,46.28
2022-12-31T09:32:24.712Z,50.35
2022-12-31T09:35:16.193Z,47.97
2022-12-31T09:40:50.873Z,47.30
2022-12-31T09:43:49.187Z,49.75
2022-12-31T09:46:58.090Z,49.90
2022-12-31T09:50:31.538Z,48.60
2022-12-31T09:53:39.456Z,51.38
2022-12-31T09:56:12.877Z,44.80
2022-12-31T09:59:03.619Z,40.67
2022-12-31T10:01:31.103Z,42.90
2022-12-31T10:04:29.559Z,50.25
2022-12-31T10:07:06.649Z,48.90
2022-12-31T10:10:01.676Z,49.20
2022-12-31T10:15:30.831Z,53.40
2022-12-31T10:18:35.609Z,48.55
2022-12-31T10:21:41.619Z,43.75
2022-12-31T10:24:53.629Z,39.92
2022-12-31T10:28:00.512Z,40.38
2022-12-31T10:30:40.992Z,40.45
2022-12-31T10:33:48.436Z,39.10
2022-12-31T10:36:30.353Z,35.97
2022-12-31T10:39:24.670Z,36.22
2022-12-31T10:42:10.121Z,34.42
2022-12-31T10:45:02.218Z,33.67
2022-12-31T10:47:58.202Z,34.42
2022-12-31T10:50:45.841Z,32.60
2022-12-31T10:59:23.556Z,21.00
2022-12-31T11:02:28.643Z,25.98
2022-12-31T11:05:11.927Z,17.05
2022-12-31T11:08:17.341Z,22.85
2022-12-31T11:11:49.007Z,15.70
2022-12-31T11:14:30.375Z,13.48
2022-12-31T11:17:34.631Z,13.50
2022-12-31T11:20:25.891Z,14.32
2022-12-31T11:22:56.287Z,14.57
2022-12-31T11:25:32.941Z,14.15
2022-12-31T11:28:11.046Z,13.55
2022-12-31T11:30:47.766Z,13.00
2022-12-31T11:33:46.786Z,13.02
2022-12-31T11:36:33.383Z,12.10
2022-12-31T11:39:25.829Z,11.43
2022-12-31T11:42:33.076Z,10.95
2022-12-31T11:45:48.690Z,9.90
2022-12-31T11:48:31.348Z,10.70
2022-12-31T11:54:15.030Z,9.73
2022-12-31T11:56:47.547Z,9.27
2022-12-31T11:59:19.274Z,10.13
2022-12-31T12:02:04.830Z,8.80
2022-12-31T12:04:32.038Z,10.43
2022-12-31T12:06:59.820Z,10.07
2022-12-31T12:09:30.396Z,9.88
2022-12-31T12:12:00.801Z,8.60
2022-12-31T12:14:38.393Z,8.13
2022-12-31T12:17:10.837Z,8.52
2022-12-31T12:19:47.825Z,7.22
2022-12-31T12:22:35.768Z,8.05
2022-12-31T12:25:16.427Z,7.60
2022-12-31T12:27:44.356Z,7.68
2022-12-31T12:30:27.053Z,8.32
2022-12-31T12:36:09.533Z,8.90
2022-12-31T12:38:40.416Z,7.82
2022-12-31T12:41:12.472Z,8.52
2022-12-31T12:43:47.264Z,8.13
2022-12-31T12:46:31.301Z,8.85
2022-12-31T12:49:01.795Z,8.13
2022-12-31T12:51:48.343Z,8.52
2022-12-31T12:54:32.352Z,8.32
2022-12-31T12:57:26.021Z,9.88
2022-12-31T13:00:10.700Z,9.18
2022-12-31T13:02:53.306Z,8.60
2022-12-31T13:05:52.052Z,9.05
2022-12-31T13:09:01.641Z,7.00
2022-12-31T13:12:07.775Z,9.57
2022-12-31T13:14:51.152Z,10.23
2022-12-31T13:17:36.950Z,9.48
2022-12-31T13:20:31.121Z,9.65
2022-12-31T13:23:07.146Z,12.45
2022-12-31T13:26:20.114Z,10.30
2022-12-31T13:31:39.397Z,13.02
2022-12-31T13:34:14.369Z,11.20
2022-12-31T13:36:45.122Z,9.98
2022-12-31T13:39:21.180Z,9.00
2022-12-31T13:42:25.794Z,12.48
2022-12-31T13:45:02.485Z,11.82
2022-12-31T13:47:47.059Z,10.77
2022-12-31T13:50:27.183Z,10.40
2022-12-31T13:53:05.256Z,9.07
2022-12-31T13:55:40.236Z,10.15
2022-12-31T13:58:16.302Z,10.43
2022-12-31T14:00:47.654Z,11.25
2022-12-31T14:03:31.118Z,9.63
2022-12-31T14:06:21.789Z,11.23
2022-12-31T14:08:48.961Z,10.25
2022-12-31T14:11:39.344Z,12.20
2022-12-31T14:14:16.419Z,12.40
2022-12-31T14:16:54.063Z,12.35
2022-12-31T14:19:48.808Z,12.77
2022-12-31T14:22:32.726Z,11.07
2022-12-31T14:25:03.149Z,13.88
2022-12-31T14:27:41.074Z,12.32
2022-12-31T14:30:19.544Z,14.38
2022-12-31T14:32:52.639Z,12.88
2022-12-31T14:35:38.773Z,12.82
2022-12-31T14:38:52.948Z,12.65
2022-12-31T14:41:44.790Z,14.60
2022-12-31T14:44:21.877Z,13.82
2022-12-31T14:46:51.649Z,13.68
2022-12-31T14:49:50.164Z,15.18
2022-12-31T14:52:22.644Z,18.33
2022-12-31T14:55:22.797Z,16.90
2022-12-31T15:03:45.838Z,17.42
2022-12-31T15:06:35.327Z,23.60
2022-12-31T15:09:25.564Z,17.05
2022-12-31T15:15:33.578Z,15.50
2022-12-31T15:18:24.482Z,14.02
2022-12-31T15:21:25.916Z,12.70
2022-12-31T15:23:56.963Z,14.63
2022-12-31T15:26:34.891Z,20.33
2022-12-31T15:29:08.500Z,13.70
2022-12-31T15:31:37.070Z,14.75
2022-12-31T15:34:23.217Z,15.65
2022-12-31T15:37:36.242Z,16.35
2022-12-31T15:40:18.230Z,18.42
2022-12-31T15:42:51.958Z,22.52
2022-12-31T15:45:48.500Z,21.75
2022-12-31T15:48:19.777Z,20.27
2022-12-31T15:50:50.999Z,25.75
2022-12-31T15:53:36.311Z,24.58
2022-12-31T15:56:05.046Z,23.48
2022-12-31T15:58:38.044Z,21.67
2022-12-31T16:01:25.479Z,19.33
2022-12-31T16:04:08.034Z,21.95
2022-12-31T16:06:46.049Z,22.90
2022-12-31T16:09:38.041Z,21.60
2022-12-31T16:12:19.440Z,21.05
2022-12-31T16:14:51.391Z,22.98
2022-12-31T16:17:35.813Z,27.08
2022-12-31T16:20:25.028Z,25.02
2022-12-31T16:22:57.626Z,24.08
2022-12-31T16:25:31.031Z,24.33
2022-12-31T16:28:02.021Z,22.15
2022-12-31T16:30:36.085Z,25.23
2022-12-31T16:33:06.576Z,23.70
2022-12-31T16:35:38.934Z,23.92
2022-12-31T16:41:12.312Z,22.95
2022-12-31T16:43:41.726Z,25.35
2022-12-31T16:49:30.564Z,24.50
2022-12-31T16:52:08.311Z,24.65
2022-12-31T16:54:39.092Z,25.73
2022-12-31T16:57:07.150Z,25.42
2022-12-31T16:59:46.953Z,26.00
2022-12-31T17:02:20.471Z,27.15
2022-12-31T17:04:56.384Z,26.27
2022-12-31T17:07:32.758Z,27.58
2022-12-31T17:10:15.010Z,27.10
2022-12-31T17:16:02.883Z,27.67
2022-12-31T17:18:38.494Z,26.98
2022-12-31T17:21:09.310Z,30.27
2022-12-31T17:23:41.044Z,26.63
2022-12-31T17:26:15.197Z,30.48
2022-12-31T17:28:46.923Z,30.27
2022-12-31T17:31:27.758Z,34.38
2022-12-31T17:34:05.142Z,37.95
2022-12-31T17:36:32.729Z,51.85
2022-12-31T17:39:20.247Z,40.40
2022-12-31T17:41:50.497Z,30.70
2022-12-31T17:44:22.242Z,32.38
2022-12-31T17:46:51.312Z,52.22
2022-12-31T17:49:22.838Z,24.80
2022-12-31T17:51:50.448Z,35.85
2022-12-31T17:54:18.978Z,30.42
2022-12-31T17:56:46.851Z,26.65
2022-12-31T17:59:22.861Z,31.48
2022-12-31T18:01:50.822Z,32.95
2022-12-31T18:04:19.404Z,28.98
2022-12-31T18:06:46.891Z,32.15
2022-12-31T18:09:14.349Z,39.03
2022-12-31T18:11:42.202Z,33.10
2022-12-31T18:14:14.144Z,206.43
2022-12-31T18:16:41.807Z,120.47
2022-12-31T18:19:45.953Z,49.00
2022-12-31T18:22:03.613Z,94.32
2022-12-31T18:24:30.842Z,36.80
2022-12-31T18:26:59.901Z,32.85
2022-12-31T18:29:26.995Z,37.88
2022-12-31T18:31:54.514Z,33.97
2022-12-31T18:34:21.612Z,27.23
2022-12-31T18:36:48.967Z,25.90
2022-12-31T18:39:16.099Z,26.45
2022-12-31T18:41:51.273Z,23.40
2022-12-31T18:44:18.330Z,26.52
2022-12-31T18:46:45.762Z,23.73
2022-12-31T18:49:12.790Z,24.85
2022-12-31T18:51:40.105Z,26.63
2022-12-31T18:54:10.607Z,26.63
2022-12-31T18:56:41.938Z,27.40
2022-12-31T18:59:13.699Z,25.45
2022-12-31T19:04:30.522Z,24.38
2022-12-31T19:06:58.442Z,26.50
2022-12-31T19:12:15.174Z,26.90
2022-12-31T19:14:52.621Z,26.13
2022-12-31T19:17:22.518Z,24.50
2022-12-31T19:19:53.258Z,25.67
2022-12-31T19:22:29.445Z,23.17
2022-12-31T19:24:56.481Z,25.25
2022-12-31T19:27:27.421Z,27.90
2022-12-31T19:29:55.352Z,30.42
2022-12-31T19:32:22.671Z,24.88
2022-12-31T19:34:49.781Z,29.08
2022-12-31T19:37:17.167Z,29.75
2022-12-31T19:39:44.259Z,23.38
2022-12-31T19:42:16.350Z,27.42
2022-12-31T19:44:46.390Z,29.17
2022-12-31T19:47:15.770Z,27.88
2022-12-31T19:49:42.737Z,30.15
2022-12-31T19:52:11.189Z,31.15
2022-12-31T19:54:39.245Z,32.53
2022-12-31T19:57:06.674Z,27.83
2022-12-31T19:59:33.605Z,28.35
2022-12-31T20:02:03.914Z,29.45
2022-12-31T20:04:31.025Z,30.15
2022-12-31T20:06:58.373Z,29.23
2022-12-31T20:09:25.459Z,32.00
2022-12-31T20:11:52.779Z,28.83
2022-12-31T20:14:24.453Z,30.00
2022-12-31T20:16:53.027Z,26.45
2022-12-31T20:19:28.320Z,29.63
2022-12-31T20:21:56.995Z,31.38
2022-12-31T20:24:25.172Z,25.75
2022-12-31T20:26:52.808Z,27.27
2022-12-31T20:31:49.122Z,22.38
2022-12-31T20:34:17.688Z,26.23
2022-12-31T20:36:49.320Z,28.90
2022-12-31T20:39:18.259Z,30.58
2022-12-31T20:44:15.737Z,25.98
2022-12-31T20:46:43.276Z,28.00
2022-12-31T20:49:11.433Z,26.80
2022-12-31T20:51:40.811Z,29.98
2022-12-31T20:54:10.692Z,30.58
2022-12-31T20:56:40.686Z,32.75
2022-12-31T20:59:10.395Z,31.48
2022-12-31T21:02:11.682Z,30.90
2022-12-31T21:04:26.026Z,31.65
2022-12-31T21:06:54.563Z,32.63
2022-12-31T21:09:22.481Z,31.77
2022-12-31T21:12:09.641Z,31.15
2022-12-31T21:14:42.820Z,30.52
2022-12-31T21:17:12.059Z,31.23
2022-12-31T21:19:39.143Z,31.13
2022-12-31T21:22:06.850Z,31.55
2022-12-31T21:24:33.924Z,28.27
2022-12-31T21:27:01.229Z,31.75
2022-12-31T21:29:32.781Z,29.83
2022-12-31T21:32:02.363Z,33.65
2022-12-31T21:34:29.370Z,33.40
2022-12-31T21:36:58.273Z,33.20
2022-12-31T21:39:25.418Z,38.78
2022-12-31T21:41:55.501Z,32.78
2022-12-31T21:44:24.581Z,38.47
2022-12-31T21:47:37.257Z,30.05
2022-12-31T21:50:06.389Z,26.23
2022-12-31T21:52:35.257Z,26.73
2022-12-31T21:55:23.918Z,28.60
2022-12-31T21:58:26.337Z,30.30
2022-12-31T22:01:00.442Z,28.63
2022-12-31T22:03:28.776Z,26.10
2022-12-31T22:06:00.077Z,29.15
2022-12-31T22:08:30.883Z,28.98
2022-12-31T22:10:58.201Z,30.17
2022-12-31T22:13:28.169Z,31.08
2022-12-31T22:16:03.982Z,44.38
2022-12-31T22:18:44.659Z,34.15
2022-12-31T22:21:18.999Z,38.50
2022-12-31T22:23:52.619Z,48.67
2022-12-31T22:26:22.427Z,65.75
2022-12-31T22:28:55.379Z,62.83
2022-12-31T22:31:27.102Z,55.28
2022-12-31T22:33:54.724Z,36.67
2022-12-31T22:36:23.351Z,40.55
2022-12-31T22:38:55.717Z,197.07
2022-12-31T22:41:27.527Z,190.52
2022-12-31T22:44:03.940Z,112.93
2022-12-31T22:46:32.294Z,58.92
2022-12-31T22:49:00.948Z,89.63
2022-12-31T22:51:30.807Z,84.75
2022-12-31T22:54:17.095Z,60.63
2022-12-31T22:56:44.057Z,62.97
2022-12-31T22:59:11.838Z,50.47
2022-12-31T23:01:39.139Z,50.55
2022-12-31T23:04:08.828Z,41.97
2022-12-31T23:06:43.641Z,40.50
2022-12-31T23:09:33.303Z,41.50
2022-12-31T23:12:01.463Z,34.90
2022-12-31T23:14:47.524Z,35.88
2022-12-31T23:17:36.608Z,38.17
2022-12-31T23:20:25.531Z,41.40
2022-12-31T23:23:11.811Z,41.08
2022-12-31T23:25:54.051Z,42.30
2022-12-31T23:28:29.379Z,38.97
2022-12-31T23:30:56.826Z,50.30
2022-12-31T23:33:26.324Z,44.80
2022-12-31T23:36:06.609Z,47.05
2022-12-31T23:38:34.907Z,45.30
2022-12-31T23:41:19.818Z,42.42
2022-12-31T23:43:50.040Z,54.60
2022-12-31T23:46:17.818Z,54.03
2022-12-31T23:48:44.904Z,48.90
2022-12-31T23:51:12.177Z,46.05
2022-12-31T23:53:39.309Z,55.10
2022-12-31T23:56:19.293Z,33.63
2022-12-31T23:58:54.573Z,37.72
